sensor_id;sensor_type;location;lat;lon;timestamp;pressure;altitude;pressure_sealevel;temperature;humidity
82951;BME280;72737;53.332;6.514;2023-10-31T00:00:45;99359.00;;;16.30;71.35
82951;BME280;72737;53.332;6.514;2023-10-31T00:03:10;99368.75;;;16.27;71.58
82951;BME280;72737;53.332;6.514;2023-10-31T00:05:36;99368.75;;;16.27;71.44
82951;BME280;72737;53.332;6.514;2023-10-31T00:08:01;99371.47;;;16.27;71.56
82951;BME280;72737;53.332;6.514;2023-10-31T00:10:27;99374.22;;;16.27;71.75
82951;BME280;72737;53.332;6.514;2023-10-31T00:12:52;99372.63;;;16.26;71.37
82951;BME280;72737;53.332;6.514;2023-10-31T00:15:18;99376.50;;;16.25;71.54
82951;BME280;72737;53.332;6.514;2023-10-31T00:17:43;99367.84;;;16.23;71.40
82951;BME280;72737;53.332;6.514;2023-10-31T00:20:09;99363.81;;;16.21;71.90
82951;BME280;72737;53.332;6.514;2023-10-31T00:22:34;99360.75;;;16.22;71.44
82951;BME280;72737;53.332;6.514;2023-10-31T00:24:59;99361.88;;;16.21;71.50
82951;BME280;72737;53.332;6.514;2023-10-31T00:27:25;99364.97;;;16.20;71.65
82951;BME280;72737;53.332;6.514;2023-10-31T00:29:50;99365.75;;;16.20;71.41
82951;BME280;72737;53.332;6.514;2023-10-31T00:32:16;99368.50;;;16.20;71.89
82951;BME280;72737;53.332;6.514;2023-10-31T00:34:41;99363.00;;;16.20;71.66
82951;BME280;72737;53.332;6.514;2023-10-31T00:37:07;99360.63;;;16.19;71.64
82951;BME280;72737;53.332;6.514;2023-10-31T00:39:33;99366.94;;;16.19;71.99
82951;BME280;72737;53.332;6.514;2023-10-31T00:41:59;99363.72;;;16.17;71.86
82951;BME280;72737;53.332;6.514;2023-10-31T00:44:25;99367.59;;;16.16;71.52
82951;BME280;72737;53.332;6.514;2023-10-31T00:46:50;99367.59;;;16.16;71.56
82951;BME280;72737;53.332;6.514;2023-10-31T00:49:16;99363.72;;;16.17;71.60
82951;BME280;72737;53.332;6.514;2023-10-31T00:51:42;99372.28;;;16.16;71.92
82951;BME280;72737;53.332;6.514;2023-10-31T00:54:07;99375.00;;;16.16;71.96
82951;BME280;72737;53.332;6.514;2023-10-31T00:56:33;99369.91;;;16.14;72.29
82951;BME280;72737;53.332;6.514;2023-10-31T00:59:00;99371.03;;;16.13;72.20
82951;BME280;72737;53.332;6.514;2023-10-31T01:01:25;99366.69;;;16.12;72.00
82951;BME280;72737;53.332;6.514;2023-10-31T01:03:51;99370.56;;;16.11;72.40
82951;BME280;72737;53.332;6.514;2023-10-31T01:06:16;99377.19;;;16.10;72.08
82951;BME280;72737;53.332;6.514;2023-10-31T01:08:41;99380.38;;;16.12;71.99
82951;BME280;72737;53.332;6.514;2023-10-31T01:11:07;99378.78;;;16.11;72.00
82951;BME280;72737;53.332;6.514;2023-10-31T01:13:32;99379.91;;;16.10;71.86
82951;BME280;72737;53.332;6.514;2023-10-31T01:15:58;99378.34;;;16.09;72.04
82951;BME280;72737;53.332;6.514;2023-10-31T01:18:23;99375.25;;;16.11;72.33
82951;BME280;72737;53.332;6.514;2023-10-31T01:20:48;99383.81;;;16.09;71.88
82951;BME280;72737;53.332;6.514;2023-10-31T01:23:15;99394.31;;;16.07;72.27
82951;BME280;72737;53.332;6.514;2023-10-31T01:25:40;99385.28;;;16.07;72.29
82951;BME280;72737;53.332;6.514;2023-10-31T01:28:06;99381.75;;;16.06;72.03
82951;BME280;72737;53.332;6.514;2023-10-31T01:30:31;99379.81;;;16.07;72.10
82951;BME280;72737;53.332;6.514;2023-10-31T01:32:57;99378.19;;;16.06;72.16
82951;BME280;72737;53.332;6.514;2023-10-31T01:35:22;99373.84;;;16.05;72.31
82951;BME280;72737;53.332;6.514;2023-10-31T01:37:49;99379.69;;;16.03;72.34
82951;BME280;72737;53.332;6.514;2023-10-31T01:40:15;99380.94;;;16.06;72.17
82951;BME280;72737;53.332;6.514;2023-10-31T01:42:40;99378.56;;;16.04;72.19
82951;BME280;72737;53.332;6.514;2023-10-31T01:45:06;99377.28;;;16.02;71.87
82951;BME280;72737;53.332;6.514;2023-10-31T01:47:32;99378.09;;;16.02;72.20
82951;BME280;72737;53.332;6.514;2023-10-31T01:49:58;99370.22;;;16.01;71.99
82951;BME280;72737;53.332;6.514;2023-10-31T01:52:25;99373.75;;;16.01;72.17
82951;BME280;72737;53.332;6.514;2023-10-31T01:54:50;99367.84;;;15.99;72.20
82951;BME280;72737;53.332;6.514;2023-10-31T01:57:18;99363.94;;;16.00;72.32
82951;BME280;72737;53.332;6.514;2023-10-31T01:59:44;99370.91;;;15.98;72.36
82951;BME280;72737;53.332;6.514;2023-10-31T02:02:10;99364.63;;;15.97;72.13
82951;BME280;72737;53.332;6.514;2023-10-31T02:04:35;99364.63;;;15.97;72.29
82951;BME280;72737;53.332;6.514;2023-10-31T02:07:01;99367.69;;;15.96;72.13
82951;BME280;72737;53.332;6.514;2023-10-31T02:09:26;99368.50;;;15.96;72.13
82951;BME280;72737;53.332;6.514;2023-10-31T02:11:54;99377.53;;;15.97;71.93
82951;BME280;72737;53.332;6.514;2023-10-31T02:14:21;99367.69;;;15.96;72.08
82951;BME280;72737;53.332;6.514;2023-10-31T02:16:47;99375.09;;;15.95;72.11
82951;BME280;72737;53.332;6.514;2023-10-31T02:19:13;99376.28;;;15.94;71.95
82951;BME280;72737;53.332;6.514;2023-10-31T02:21:41;99378.22;;;15.94;71.96
82951;BME280;72737;53.332;6.514;2023-10-31T02:24:07;99378.22;;;15.94;72.12
82951;BME280;72737;53.332;6.514;2023-10-31T02:26:34;99380.16;;;15.93;72.04
82951;BME280;72737;53.332;6.514;2023-10-31T02:29:00;99367.59;;;15.92;72.14
82951;BME280;72737;53.332;6.514;2023-10-31T02:31:27;99384.03;;;15.92;72.25
82951;BME280;72737;53.332;6.514;2023-10-31T02:33:52;99384.03;;;15.92;71.96
82951;BME280;72737;53.332;6.514;2023-10-31T02:36:18;99376.94;;;15.91;72.25
82951;BME280;72737;53.332;6.514;2023-10-31T02:38:45;99384.03;;;15.92;71.99
82951;BME280;72737;53.332;6.514;2023-10-31T02:41:11;99374.19;;;15.91;72.02
82951;BME280;72737;53.332;6.514;2023-10-31T02:43:38;99376.13;;;15.91;71.79
82951;BME280;72737;53.332;6.514;2023-10-31T02:46:03;99382.41;;;15.91;71.74
82951;BME280;72737;53.332;6.514;2023-10-31T02:48:30;99383.56;;;15.90;71.90
82951;BME280;72737;53.332;6.514;2023-10-31T02:51:04;99372.16;;;15.88;71.95
82951;BME280;72737;53.332;6.514;2023-10-31T02:53:29;99366.66;;;15.88;71.50
82951;BME280;72737;53.332;6.514;2023-10-31T02:55:55;99367.47;;;15.88;71.68
82951;BME280;72737;53.332;6.514;2023-10-31T02:58:21;99364.25;;;15.86;71.86
82951;BME280;72737;53.332;6.514;2023-10-31T03:00:46;99361.84;;;15.85;72.13
82951;BME280;72737;53.332;6.514;2023-10-31T03:03:11;99367.34;;;15.85;72.02
82951;BME280;72737;53.332;6.514;2023-10-31T03:05:37;99372.00;;;15.84;71.89
82951;BME280;72737;53.332;6.514;2023-10-31T03:08:04;99373.97;;;15.84;71.84
82951;BME280;72737;53.332;6.514;2023-10-31T03:10:31;99375.09;;;15.83;72.00
82951;BME280;72737;53.332;6.514;2023-10-31T03:12:56;99379.78;;;15.82;72.09
82951;BME280;72737;53.332;6.514;2023-10-31T03:15:22;99386.06;;;15.83;72.28
82951;BME280;72737;53.332;6.514;2023-10-31T03:17:47;99395.41;;;15.82;72.05
82951;BME280;72737;53.332;6.514;2023-10-31T03:20:12;99395.41;;;15.82;71.57
82951;BME280;72737;53.332;6.514;2023-10-31T03:22:38;99398.50;;;15.80;72.00
82951;BME280;72737;53.332;6.514;2023-10-31T03:25:12;99408.31;;;15.81;72.04
82951;BME280;72737;53.332;6.514;2023-10-31T03:27:38;99398.84;;;15.79;72.21
82951;BME280;72737;53.332;6.514;2023-10-31T03:30:04;99400.44;;;15.80;72.01
82951;BME280;72737;53.332;6.514;2023-10-31T03:32:29;99394.94;;;15.80;72.05
82951;BME280;72737;53.332;6.514;2023-10-31T03:34:55;99408.63;;;15.80;71.69
82951;BME280;72737;53.332;6.514;2023-10-31T03:37:20;99406.25;;;15.78;71.78
82951;BME280;72737;53.332;6.514;2023-10-31T03:39:45;99409.00;;;15.78;71.78
82951;BME280;72737;53.332;6.514;2023-10-31T03:42:11;99414.00;;;15.76;71.62
82951;BME280;72737;53.332;6.514;2023-10-31T03:44:36;99415.28;;;15.79;71.87
82951;BME280;72737;53.332;6.514;2023-10-31T03:47:03;99414.81;;;15.77;71.96
82951;BME280;72737;53.332;6.514;2023-10-31T03:49:28;99424.50;;;15.74;72.25
82951;BME280;72737;53.332;6.514;2023-10-31T03:51:54;99425.28;;;15.75;71.73
82951;BME280;72737;53.332;6.514;2023-10-31T03:54:19;99430.44;;;15.76;71.87
82951;BME280;72737;53.332;6.514;2023-10-31T03:56:44;99434.66;;;15.74;71.93
82951;BME280;72737;53.332;6.514;2023-10-31T03:59:10;99434.19;;;15.72;71.79
82951;BME280;72737;53.332;6.514;2023-10-31T04:01:35;99444.03;;;15.73;72.10
82951;BME280;72737;53.332;6.514;2023-10-31T04:04:01;99446.75;;;15.73;71.64
82951;BME280;72737;53.332;6.514;2023-10-31T04:06:27;99441.94;;;15.70;72.08
82951;BME280;72737;53.332;6.514;2023-10-31T04:08:53;99458.38;;;15.70;71.87
82951;BME280;72737;53.332;6.514;2023-10-31T04:11:18;99450.50;;;15.68;72.12
82951;BME280;72737;53.332;6.514;2023-10-31T04:13:44;99456.78;;;15.69;72.39
82951;BME280;72737;53.332;6.514;2023-10-31T04:16:09;99452.44;;;15.68;71.87
82951;BME280;72737;53.332;6.514;2023-10-31T04:18:36;99460.66;;;15.68;71.81
82951;BME280;72737;53.332;6.514;2023-10-31T04:21:01;99464.13;;;15.77;72.10
82951;BME280;72737;53.332;6.514;2023-10-31T04:23:28;99468.47;;;15.78;71.55
82951;BME280;72737;53.332;6.514;2023-10-31T04:25:53;99467.97;;;15.76;71.08
82951;BME280;72737;53.332;6.514;2023-10-31T04:28:20;99466.75;;;15.73;71.42
82951;BME280;72737;53.332;6.514;2023-10-31T04:30:45;99478.03;;;15.72;71.04
82951;BME280;72737;53.332;6.514;2023-10-31T04:33:11;99473.69;;;15.71;71.43
82951;BME280;72737;53.332;6.514;2023-10-31T04:35:36;99478.03;;;15.72;71.25
82951;BME280;72737;53.332;6.514;2023-10-31T04:38:01;99474.00;;;15.69;71.00
82951;BME280;72737;53.332;6.514;2023-10-31T04:40:27;99480.28;;;15.70;71.08
82951;BME280;72737;53.332;6.514;2023-10-31T04:42:52;99479.47;;;15.69;70.69
82951;BME280;72737;53.332;6.514;2023-10-31T04:45:18;99478.72;;;15.69;71.11
82951;BME280;72737;53.332;6.514;2023-10-31T04:47:43;99482.69;;;15.71;70.95
82951;BME280;72737;53.332;6.514;2023-10-31T04:50:10;99481.44;;;15.69;71.19
82951;BME280;72737;53.332;6.514;2023-10-31T04:52:35;99494.66;;;15.67;71.26
82951;BME280;72737;53.332;6.514;2023-10-31T04:55:01;99490.78;;;15.68;71.05
82951;BME280;72737;53.332;6.514;2023-10-31T04:57:26;99491.91;;;15.67;70.90
82951;BME280;72737;53.332;6.514;2023-10-31T04:59:52;99491.59;;;15.68;70.45
82951;BME280;72737;53.332;6.514;2023-10-31T05:02:21;99495.78;;;15.66;70.82
82951;BME280;72737;53.332;6.514;2023-10-31T05:04:48;99494.19;;;15.65;70.91
82951;BME280;72737;53.332;6.514;2023-10-31T05:07:16;99499.66;;;15.65;71.02
82951;BME280;72737;53.332;6.514;2023-10-31T05:09:41;99498.84;;;15.64;71.11
82951;BME280;72737;53.332;6.514;2023-10-31T05:12:07;99494.66;;;15.67;71.11
82951;BME280;72737;53.332;6.514;2023-10-31T05:14:32;99496.88;;;15.73;71.04
82951;BME280;72737;53.332;6.514;2023-10-31T05:16:58;99502.19;;;15.70;71.13
82951;BME280;72737;53.332;6.514;2023-10-31T05:19:23;99504.00;;;15.66;71.06
82951;BME280;72737;53.332;6.514;2023-10-31T05:21:49;99506.63;;;15.62;71.29
82951;BME280;72737;53.332;6.514;2023-10-31T05:24:14;99510.50;;;15.61;71.10
82951;BME280;72737;53.332;6.514;2023-10-31T05:26:40;99507.28;;;15.59;71.56
82951;BME280;72737;53.332;6.514;2023-10-31T05:29:08;99505.81;;;15.62;71.11
82951;BME280;72737;53.332;6.514;2023-10-31T05:31:33;99511.41;;;15.65;70.85
82951;BME280;72737;53.332;6.514;2023-10-31T05:33:58;99511.28;;;15.62;70.98
82951;BME280;72737;53.332;6.514;2023-10-31T05:36:25;99511.28;;;15.62;70.68
82951;BME280;72737;53.332;6.514;2023-10-31T05:38:51;99523.72;;;15.59;70.64
82951;BME280;72737;53.332;6.514;2023-10-31T05:41:17;99513.56;;;15.60;70.09
82951;BME280;72737;53.332;6.514;2023-10-31T05:43:42;99514.38;;;15.60;70.20
82951;BME280;72737;53.332;6.514;2023-10-31T05:46:08;99508.75;;;15.57;70.30
82951;BME280;72737;53.332;6.514;2023-10-31T05:48:40;99526.69;;;15.54;70.18
82951;BME280;72737;53.332;6.514;2023-10-31T05:51:16;99523.47;;;15.52;69.75
82951;BME280;72737;53.332;6.514;2023-10-31T05:53:44;99519.59;;;15.53;69.73
82951;BME280;72737;53.332;6.514;2023-10-31T05:56:12;99525.41;;;15.52;69.84
82951;BME280;72737;53.332;6.514;2023-10-31T05:58:38;99527.00;;;15.53;69.54
82951;BME280;72737;53.332;6.514;2023-10-31T06:01:04;99523.59;;;15.56;69.27
82951;BME280;72737;53.332;6.514;2023-10-31T06:03:29;99531.34;;;15.54;69.54
82951;BME280;72737;53.332;6.514;2023-10-31T06:05:55;99538.75;;;15.53;69.53
82951;BME280;72737;53.332;6.514;2023-10-31T06:08:20;99544.22;;;15.53;69.77
82951;BME280;72737;53.332;6.514;2023-10-31T06:10:46;99544.56;;;15.52;69.77
82951;BME280;72737;53.332;6.514;2023-10-31T06:13:11;99542.91;;;15.51;70.07
82951;BME280;72737;53.332;6.514;2023-10-31T06:15:36;99553.06;;;15.50;69.97
82951;BME280;72737;53.332;6.514;2023-10-31T06:18:02;99556.16;;;15.49;69.45
82951;BME280;72737;53.332;6.514;2023-10-31T06:20:28;99549.53;;;15.50;69.82
82951;BME280;72737;53.332;6.514;2023-10-31T06:22:54;99550.09;;;15.43;69.89
82951;BME280;72737;53.332;6.514;2023-10-31T06:25:19;99546.00;;;15.49;69.50
82951;BME280;72737;53.332;6.514;2023-10-31T06:27:45;99554.56;;;15.48;69.72
82951;BME280;72737;53.332;6.514;2023-10-31T06:30:10;99552.13;;;15.46;69.72
82951;BME280;72737;53.332;6.514;2023-10-31T06:32:36;99556.69;;;15.42;69.95
82951;BME280;72737;53.332;6.514;2023-10-31T06:35:02;99556.00;;;15.45;69.59
82951;BME280;72737;53.332;6.514;2023-10-31T06:37:27;99555.88;;;15.41;70.11
82951;BME280;72737;53.332;6.514;2023-10-31T06:39:54;99550.94;;;15.35;70.37
82951;BME280;72737;53.332;6.514;2023-10-31T06:42:20;99555.59;;;15.34;70.09
82951;BME280;72737;53.332;6.514;2023-10-31T06:44:45;99560.75;;;15.36;70.29
82951;BME280;72737;53.332;6.514;2023-10-31T06:47:11;99562.69;;;15.35;69.62
82951;BME280;72737;53.332;6.514;2023-10-31T06:49:36;99563.97;;;15.38;69.87
82951;BME280;72737;53.332;6.514;2023-10-31T06:52:04;99574.09;;;15.37;70.14
82951;BME280;72737;53.332;6.514;2023-10-31T06:54:29;99570.44;;;15.33;69.91
82951;BME280;72737;53.332;6.514;2023-10-31T06:56:57;99567.69;;;15.33;70.09
82951;BME280;72737;53.332;6.514;2023-10-31T06:59:23;99566.94;;;15.24;70.01
82951;BME280;72737;53.332;6.514;2023-10-31T07:01:48;99575.63;;;15.26;70.22
82951;BME280;72737;53.332;6.514;2023-10-31T07:04:14;99572.41;;;15.24;70.02
82951;BME280;72737;53.332;6.514;2023-10-31T07:06:39;99574.81;;;15.26;69.97
82951;BME280;72737;53.332;6.514;2023-10-31T07:09:05;99576.75;;;15.25;69.75
82951;BME280;72737;53.332;6.514;2023-10-31T07:11:31;99571.16;;;15.22;69.96
82951;BME280;72737;53.332;6.514;2023-10-31T07:14:01;99575.81;;;15.21;70.30
82951;BME280;72737;53.332;6.514;2023-10-31T07:16:27;99575.00;;;15.21;69.98
82951;BME280;72737;53.332;6.514;2023-10-31T07:18:54;99584.69;;;15.18;70.29
82951;BME280;72737;53.332;6.514;2023-10-31T07:21:20;99581.97;;;15.18;70.16
82951;BME280;72737;53.332;6.514;2023-10-31T07:23:46;99588.56;;;15.17;70.14
82951;BME280;72737;53.332;6.514;2023-10-31T07:26:11;99588.88;;;15.16;70.21
82951;BME280;72737;53.332;6.514;2023-10-31T07:28:37;99592.09;;;15.18;69.54
82951;BME280;72737;53.332;6.514;2023-10-31T07:31:04;99591.75;;;15.19;69.72
82951;BME280;72737;53.332;6.514;2023-10-31T07:33:30;99589.69;;;15.16;70.13
82951;BME280;72737;53.332;6.514;2023-10-31T07:35:55;99588.56;;;15.17;69.58
82951;BME280;72737;53.332;6.514;2023-10-31T07:38:20;99587.09;;;15.20;69.58
82951;BME280;72737;53.332;6.514;2023-10-31T07:40:46;99591.94;;;15.14;69.66
82951;BME280;72737;53.332;6.514;2023-10-31T07:43:13;99590.69;;;15.12;69.52
82951;BME280;72737;53.332;6.514;2023-10-31T07:45:38;99590.00;;;15.15;69.83
82951;BME280;72737;53.332;6.514;2023-10-31T07:48:05;99588.75;;;15.12;70.13
82951;BME280;72737;53.332;6.514;2023-10-31T07:50:30;99599.03;;;15.15;69.65
82951;BME280;72737;53.332;6.514;2023-10-31T07:52:56;99586.94;;;15.16;70.10
82951;BME280;72737;53.332;6.514;2023-10-31T07:55:23;99600.97;;;15.15;70.02
82951;BME280;72737;53.332;6.514;2023-10-31T07:57:49;99598.56;;;15.13;69.88
82951;BME280;72737;53.332;6.514;2023-10-31T08:00:15;99605.63;;;15.14;70.55
82951;BME280;72737;53.332;6.514;2023-10-31T08:02:41;99604.03;;;15.13;70.05
82951;BME280;72737;53.332;6.514;2023-10-31T08:05:07;99598.56;;;15.13;70.39
82951;BME280;72737;53.332;6.514;2023-10-31T08:07:32;99615.00;;;15.13;70.44
82951;BME280;72737;53.332;6.514;2023-10-31T08:09:58;99615.00;;;15.13;70.21
82951;BME280;72737;53.332;6.514;2023-10-31T08:12:24;99615.78;;;15.14;70.50
82951;BME280;72737;53.332;6.514;2023-10-31T08:14:49;99615.63;;;15.10;70.64
82951;BME280;72737;53.332;6.514;2023-10-31T08:17:14;99618.38;;;15.10;70.99
82951;BME280;72737;53.332;6.514;2023-10-31T08:19:41;99620.28;;;15.10;70.55
82951;BME280;72737;53.332;6.514;2023-10-31T08:22:07;99632.84;;;15.11;70.77
82951;BME280;72737;53.332;6.514;2023-10-31T08:24:32;99635.91;;;15.09;71.16
82951;BME280;72737;53.332;6.514;2023-10-31T08:27:01;99640.25;;;15.10;70.53
82951;BME280;72737;53.332;6.514;2023-10-31T08:29:27;99644.13;;;15.09;70.81
82951;BME280;72737;53.332;6.514;2023-10-31T08:31:53;99648.47;;;15.10;70.86
82951;BME280;72737;53.332;6.514;2023-10-31T08:34:18;99653.63;;;15.12;70.83
82951;BME280;72737;53.332;6.514;2023-10-31T08:36:43;99646.41;;;15.07;71.44
82951;BME280;72737;53.332;6.514;2023-10-31T08:39:09;99656.22;;;15.08;71.54
82951;BME280;72737;53.332;6.514;2023-10-31T08:41:34;99668.75;;;15.09;71.11
82951;BME280;72737;53.332;6.514;2023-10-31T08:44:00;99675.03;;;15.10;71.38
82951;BME280;72737;53.332;6.514;2023-10-31T08:46:28;99682.59;;;15.04;71.78
82951;BME280;72737;53.332;6.514;2023-10-31T08:48:54;99704.50;;;15.04;72.13
82951;BME280;72737;53.332;6.514;2023-10-31T08:51:19;99703.72;;;15.03;71.93
82951;BME280;72737;53.332;6.514;2023-10-31T08:53:45;99711.56;;;15.05;72.39
82951;BME280;72737;53.332;6.514;2023-10-31T08:56:10;99726.88;;;15.06;72.07
82951;BME280;72737;53.332;6.514;2023-10-31T08:58:35;99725.59;;;15.03;72.08
82951;BME280;72737;53.332;6.514;2023-10-31T09:01:01;99738.94;;;15.05;72.53
82951;BME280;72737;53.332;6.514;2023-10-31T09:03:26;99759.38;;;15.08;71.98
82951;BME280;72737;53.332;6.514;2023-10-31T09:05:52;99769.34;;;15.12;71.55
82951;BME280;72737;53.332;6.514;2023-10-31T09:08:17;99770.97;;;15.13;71.99
82951;BME280;72737;53.332;6.514;2023-10-31T09:10:43;99774.50;;;15.14;71.74
82951;BME280;72737;53.332;6.514;2023-10-31T09:13:11;99773.53;;;15.10;72.20
82951;BME280;72737;53.332;6.514;2023-10-31T09:15:36;99787.03;;;15.15;71.96
82951;BME280;72737;53.332;6.514;2023-10-31T09:18:02;99801.06;;;15.13;71.99
82951;BME280;72737;53.332;6.514;2023-10-31T09:20:27;99809.28;;;15.13;72.37
82951;BME280;72737;53.332;6.514;2023-10-31T09:22:54;99806.53;;;15.13;72.44
82951;BME280;72737;53.332;6.514;2023-10-31T09:25:19;99821.19;;;15.17;72.65
82951;BME280;72737;53.332;6.514;2023-10-31T09:27:45;99829.38;;;15.17;72.53
82951;BME280;72737;53.332;6.514;2023-10-31T09:30:10;99829.25;;;15.14;72.61
82951;BME280;72737;53.332;6.514;2023-10-31T09:32:36;99838.22;;;15.31;72.15
82951;BME280;72737;53.332;6.514;2023-10-31T09:35:01;99843.03;;;15.52;71.77
82951;BME280;72737;53.332;6.514;2023-10-31T09:37:27;99835.78;;;15.38;71.27
82951;BME280;72737;53.332;6.514;2023-10-31T09:39:53;99844.34;;;15.20;71.63
82951;BME280;72737;53.332;6.514;2023-10-31T09:42:18;99849.03;;;15.11;72.12
82951;BME280;72737;53.332;6.514;2023-10-31T09:44:44;99851.56;;;15.24;71.71
82951;BME280;72737;53.332;6.514;2023-10-31T09:47:09;99849.94;;;15.40;70.49
82951;BME280;72737;53.332;6.514;2023-10-31T09:49:35;99857.16;;;15.45;69.68
82951;BME280;72737;53.332;6.514;2023-10-31T09:52:01;99862.53;;;15.24;70.82
82951;BME280;72737;53.332;6.514;2023-10-31T09:54:26;99865.44;;;15.19;71.08
82951;BME280;72737;53.332;6.514;2023-10-31T09:56:53;99871.56;;;15.16;71.19
82951;BME280;72737;53.332;6.514;2023-10-31T09:59:18;99880.56;;;15.17;71.00
82951;BME280;72737;53.332;6.514;2023-10-31T10:01:44;99884.75;;;15.14;70.69
82951;BME280;72737;53.332;6.514;2023-10-31T10:04:10;99880.44;;;15.13;70.84
82951;BME280;72737;53.332;6.514;2023-10-31T10:06:40;99888.47;;;15.10;70.66
82951;BME280;72737;53.332;6.514;2023-10-31T10:09:05;99895.72;;;15.06;70.53
82951;BME280;72737;53.332;6.514;2023-10-31T10:11:33;99896.53;;;14.97;70.88
82951;BME280;72737;53.332;6.514;2023-10-31T10:13:59;99907.31;;;15.02;70.83
82951;BME280;72737;53.332;6.514;2023-10-31T10:16:29;99909.06;;;15.07;70.33
82951;BME280;72737;53.332;6.514;2023-10-31T10:18:57;99913.44;;;15.08;70.23
82951;BME280;72737;53.332;6.514;2023-10-31T10:21:24;99915.00;;;15.09;70.05
82951;BME280;72737;53.332;6.514;2023-10-31T10:23:51;99920.50;;;15.09;70.25
82951;BME280;72737;53.332;6.514;2023-10-31T10:26:17;99923.38;;;15.04;69.97
82951;BME280;72737;53.332;6.514;2023-10-31T10:28:46;99922.25;;;15.05;69.83
82951;BME280;72737;53.332;6.514;2023-10-31T10:31:14;99919.72;;;15.09;70.08
82951;BME280;72737;53.332;6.514;2023-10-31T10:33:40;99929.50;;;15.10;70.10
82951;BME280;72737;53.332;6.514;2023-10-31T10:36:07;99923.56;;;15.08;69.71
82951;BME280;72737;53.332;6.514;2023-10-31T10:38:35;99935.78;;;15.10;69.67
82951;BME280;72737;53.332;6.514;2023-10-31T10:41:02;99942.56;;;15.13;69.52
82951;BME280;72737;53.332;6.514;2023-10-31T10:43:34;99950.28;;;15.11;69.79
82951;BME280;72737;53.332;6.514;2023-10-31T10:46:04;99953.16;;;15.14;69.97
82951;BME280;72737;53.332;6.514;2023-10-31T10:48:32;99950.28;;;15.11;69.21
82951;BME280;72737;53.332;6.514;2023-10-31T10:51:04;99962.03;;;15.11;69.30
82951;BME280;72737;53.332;6.514;2023-10-31T10:53:41;99965.41;;;15.08;69.31
82951;BME280;72737;53.332;6.514;2023-10-31T10:56:25;99968.63;;;15.10;68.86
82951;BME280;72737;53.332;6.514;2023-10-31T10:59:04;99964.28;;;15.09;69.49
82951;BME280;72737;53.332;6.514;2023-10-31T11:01:34;99981.34;;;15.15;69.07
82951;BME280;72737;53.332;6.514;2023-10-31T11:04:01;99970.75;;;15.13;68.70
82951;BME280;72737;53.332;6.514;2023-10-31T11:06:28;99977.94;;;15.09;69.49
82951;BME280;72737;53.332;6.514;2023-10-31T11:08:55;99978.91;;;15.04;69.52
82951;BME280;72737;53.332;6.514;2023-10-31T11:11:21;99992.13;;;15.02;68.89
82951;BME280;72737;53.332;6.514;2023-10-31T11:13:49;99989.06;;;15.04;68.77
82951;BME280;72737;53.332;6.514;2023-10-31T11:16:22;99991.97;;;15.08;69.17
82951;BME280;72737;53.332;6.514;2023-10-31T11:18:51;99995.69;;;15.12;69.17
82951;BME280;72737;53.332;6.514;2023-10-31T11:21:16;99990.50;;;15.10;68.78
82951;BME280;72737;53.332;6.514;2023-10-31T11:23:45;99995.38;;;15.13;68.54
82951;BME280;72737;53.332;6.514;2023-10-31T11:26:10;99994.41;;;15.18;68.79
82951;BME280;72737;53.332;6.514;2023-10-31T11:28:36;99996.03;;;15.19;68.17
82951;BME280;72737;53.332;6.514;2023-10-31T11:31:01;99987.97;;;15.22;68.03
82951;BME280;72737;53.332;6.514;2023-10-31T11:33:28;99990.84;;;15.26;68.04
82951;BME280;72737;53.332;6.514;2023-10-31T11:36:06;99988.44;;;15.24;68.66
82951;BME280;72737;53.332;6.514;2023-10-31T11:38:35;99995.53;;;15.25;68.87
82951;BME280;72737;53.332;6.514;2023-10-31T11:41:02;99999.38;;;15.24;69.19
82951;BME280;72737;53.332;6.514;2023-10-31T11:46:05;100007.59;;;15.24;68.66
82951;BME280;72737;53.332;6.514;2023-10-31T11:48:49;100004.38;;;15.22;69.24
82951;BME280;72737;53.332;6.514;2023-10-31T11:51:16;100001.16;;;15.20;69.11
82951;BME280;72737;53.332;6.514;2023-10-31T11:53:43;100006.78;;;15.15;68.80
82951;BME280;72737;53.332;6.514;2023-10-31T11:56:10;100010.00;;;15.17;68.58
82951;BME280;72737;53.332;6.514;2023-10-31T11:58:38;100015.00;;;15.15;68.37
82951;BME280;72737;53.332;6.514;2023-10-31T12:01:08;100012.41;;;15.10;68.45
82951;BME280;72737;53.332;6.514;2023-10-31T12:03:38;100015.16;;;15.10;68.56
82951;BME280;72737;53.332;6.514;2023-10-31T12:06:07;100029.63;;;15.11;68.22
82951;BME280;72737;53.332;6.514;2023-10-31T12:08:37;100033.84;;;15.08;68.32
82951;BME280;72737;53.332;6.514;2023-10-31T12:11:14;100043.47;;;15.06;68.40
82951;BME280;72737;53.332;6.514;2023-10-31T12:16:23;100046.03;;;15.02;68.56
82951;BME280;72737;53.332;6.514;2023-10-31T12:18:57;100060.84;;;15.01;68.45
82951;BME280;72737;53.332;6.514;2023-10-31T12:24:07;100078.53;;;14.95;68.66
82951;BME280;72737;53.332;6.514;2023-10-31T12:26:34;100089.16;;;14.96;68.47
82951;BME280;72737;53.332;6.514;2023-10-31T12:29:09;100084.50;;;14.97;69.02
82951;BME280;72737;53.332;6.514;2023-10-31T12:31:35;100088.50;;;14.99;68.34
82951;BME280;72737;53.332;6.514;2023-10-31T12:34:07;100088.22;;;15.01;68.62
82951;BME280;72737;53.332;6.514;2023-10-31T12:36:34;100092.88;;;15.00;69.16
82951;BME280;72737;53.332;6.514;2023-10-31T12:39:00;100094.78;;;15.00;68.82
82951;BME280;72737;53.332;6.514;2023-10-31T12:41:26;100100.78;;;15.02;68.94
82951;BME280;72737;53.332;6.514;2023-10-31T12:43:52;100105.75;;;15.00;68.89
82951;BME280;72737;53.332;6.514;2023-10-31T12:46:26;100108.47;;;15.00;69.10
82951;BME280;72737;53.332;6.514;2023-10-31T12:48:51;100116.38;;;15.01;69.16
82951;BME280;72737;53.332;6.514;2023-10-31T12:51:17;100110.91;;;15.01;69.06
82951;BME280;72737;53.332;6.514;2023-10-31T12:53:48;100116.69;;;15.00;69.66
82951;BME280;72737;53.332;6.514;2023-10-31T12:56:37;100127.97;;;14.98;69.23
82951;BME280;72737;53.332;6.514;2023-10-31T12:59:08;100127.16;;;14.98;70.09
82951;BME280;72737;53.332;6.514;2023-10-31T13:01:45;100134.22;;;14.99;69.41
82951;BME280;72737;53.332;6.514;2023-10-31T13:04:10;100144.38;;;14.98;69.78